sensor_id;sensor_type;location;lat;lon;timestamp;P1;durP1;ratioP1;P2;durP2;ratioP2
61003;SDS011;46889;37.310;13.582;2022-10-16T00:00:36;6.70;;;2.88;;
61003;SDS011;46889;37.310;13.582;2022-10-16T00:03:04;7.30;;;2.13;;
61003;SDS011;46889;37.310;13.582;2022-10-16T00:05:31;11.85;;;2.83;;
61003;SDS011;46889;37.310;13.582;2022-10-16T00:07:58;6.55;;;2.50;;
61003;SDS011;46889;37.310;13.582;2022-10-16T00:10:24;10.27;;;2.38;;
61003;SDS011;46889;37.310;13.582;2022-10-16T00:12:50;6.78;;;2.20;;
61003;SDS011;46889;37.310;13.582;2022-10-16T00:15:16;9.18;;;2.20;;
61003;SDS011;46889;37.310;13.582;2022-10-16T00:17:42;5.32;;;2.10;;
61003;SDS011;46889;37.310;13.582;2022-10-16T00:22:36;9.75;;;2.90;;
61003;SDS011;46889;37.310;13.582;2022-10-16T00:25:02;6.20;;;2.90;;
61003;SDS011;46889;37.310;13.582;2022-10-16T00:27:28;7.35;;;2.58;;
61003;SDS011;46889;37.310;13.582;2022-10-16T00:29:54;7.80;;;2.30;;
61003;SDS011;46889;37.310;13.582;2022-10-16T00:32:20;5.80;;;2.35;;
61003;SDS011;46889;37.310;13.582;2022-10-16T00:34:47;6.28;;;2.53;;
61003;SDS011;46889;37.310;13.582;2022-10-16T00:37:14;6.55;;;2.17;;
61003;SDS011;46889;37.310;13.582;2022-10-16T00:39:40;6.63;;;2.40;;
61003;SDS011;46889;37.310;13.582;2022-10-16T00:42:06;9.13;;;2.50;;
61003;SDS011;46889;37.310;13.582;2022-10-16T00:44:50;7.65;;;2.30;;
61003;SDS011;46889;37.310;13.582;2022-10-16T00:52:44;5.30;;;2.40;;
61003;SDS011;46889;37.310;13.582;2022-10-16T00:55:13;7.43;;;2.35;;
61003;SDS011;46889;37.310;13.582;2022-10-16T00:57:40;6.15;;;2.30;;
61003;SDS011;46889;37.310;13.582;2022-10-16T01:02:34;7.20;;;2.13;;
61003;SDS011;46889;37.310;13.582;2022-10-16T01:05:01;6.07;;;1.92;;
61003;SDS011;46889;37.310;13.582;2022-10-16T01:10:06;5.65;;;2.30;;
61003;SDS011;46889;37.310;13.582;2022-10-16T01:12:45;7.85;;;2.50;;
61003;SDS011;46889;37.310;13.582;2022-10-16T01:15:29;7.75;;;2.25;;
61003;SDS011;46889;37.310;13.582;2022-10-16T01:20:39;4.60;;;2.10;;
61003;SDS011;46889;37.310;13.582;2022-10-16T01:28:54;4.50;;;2.17;;
61003;SDS011;46889;37.310;13.582;2022-10-16T01:31:26;8.48;;;2.42;;
61003;SDS011;46889;37.310;13.582;2022-10-16T01:33:57;5.85;;;2.20;;
61003;SDS011;46889;37.310;13.582;2022-10-16T01:36:33;6.18;;;2.30;;
61003;SDS011;46889;37.310;13.582;2022-10-16T01:39:04;8.05;;;2.30;;
61003;SDS011;46889;37.310;13.582;2022-10-16T01:41:34;10.73;;;2.28;;
61003;SDS011;46889;37.310;13.582;2022-10-16T01:44:16;5.95;;;2.10;;
61003;SDS011;46889;37.310;13.582;2022-10-16T01:46:48;8.55;;;2.20;;
61003;SDS011;46889;37.310;13.582;2022-10-16T01:49:17;8.05;;;2.50;;
61003;SDS011;46889;37.310;13.582;2022-10-16T01:51:47;5.80;;;2.38;;
61003;SDS011;46889;37.310;13.582;2022-10-16T01:54:18;6.82;;;2.10;;
61003;SDS011;46889;37.310;13.582;2022-10-16T01:56:48;6.55;;;2.42;;
61003;SDS011;46889;37.310;13.582;2022-10-16T01:59:17;5.10;;;2.00;;
61003;SDS011;46889;37.310;13.582;2022-10-16T02:01:49;5.53;;;2.13;;
61003;SDS011;46889;37.310;13.582;2022-10-16T02:06:49;7.63;;;2.15;;
61003;SDS011;46889;37.310;13.582;2022-10-16T02:09:15;6.38;;;2.42;;
61003;SDS011;46889;37.310;13.582;2022-10-16T02:11:49;8.65;;;2.53;;
61003;SDS011;46889;37.310;13.582;2022-10-16T02:14:17;6.28;;;2.40;;
61003;SDS011;46889;37.310;13.582;2022-10-16T02:16:46;6.65;;;2.20;;
61003;SDS011;46889;37.310;13.582;2022-10-16T02:19:13;6.95;;;2.40;;
61003;SDS011;46889;37.310;13.582;2022-10-16T02:21:44;10.50;;;2.75;;
61003;SDS011;46889;37.310;13.582;2022-10-16T02:26:58;6.30;;;2.15;;
61003;SDS011;46889;37.310;13.582;2022-10-16T02:29:31;3.53;;;2.03;;
61003;SDS011;46889;37.310;13.582;2022-10-16T02:32:00;6.15;;;2.25;;
61003;SDS011;46889;37.310;13.582;2022-10-16T02:34:29;7.43;;;2.40;;
61003;SDS011;46889;37.310;13.582;2022-10-16T02:36:57;8.77;;;2.80;;
61003;SDS011;46889;37.310;13.582;2022-10-16T02:39:24;9.88;;;2.35;;
61003;SDS011;46889;37.310;13.582;2022-10-16T02:41:53;8.50;;;1.95;;
61003;SDS011;46889;37.310;13.582;2022-10-16T02:44:19;9.25;;;2.53;;
61003;SDS011;46889;37.310;13.582;2022-10-16T02:46:52;4.68;;;2.20;;
61003;SDS011;46889;37.310;13.582;2022-10-16T02:49:19;7.72;;;2.30;;
61003;SDS011;46889;37.310;13.582;2022-10-16T02:51:45;9.20;;;3.47;;
61003;SDS011;46889;37.310;13.582;2022-10-16T02:54:13;8.47;;;3.00;;
61003;SDS011;46889;37.310;13.582;2022-10-16T02:56:39;8.68;;;3.03;;
61003;SDS011;46889;37.310;13.582;2022-10-16T02:59:05;8.15;;;2.78;;
61003;SDS011;46889;37.310;13.582;2022-10-16T03:06:24;7.40;;;3.00;;
61003;SDS011;46889;37.310;13.582;2022-10-16T03:08:50;9.45;;;2.92;;
61003;SDS011;46889;37.310;13.582;2022-10-16T03:11:16;8.00;;;3.10;;
61003;SDS011;46889;37.310;13.582;2022-10-16T03:13:42;10.75;;;3.05;;
61003;SDS011;46889;37.310;13.582;2022-10-16T03:16:08;5.60;;;3.08;;
61003;SDS011;46889;37.310;13.582;2022-10-16T03:18:34;9.30;;;3.42;;
61003;SDS011;46889;37.310;13.582;2022-10-16T03:21:01;8.27;;;3.28;;
61003;SDS011;46889;37.310;13.582;2022-10-16T03:23:27;7.70;;;3.28;;
61003;SDS011;46889;37.310;13.582;2022-10-16T03:28:19;6.03;;;3.03;;
61003;SDS011;46889;37.310;13.582;2022-10-16T03:30:46;10.70;;;3.85;;
61003;SDS011;46889;37.310;13.582;2022-10-16T03:33:12;6.15;;;3.63;;
61003;SDS011;46889;37.310;13.582;2022-10-16T03:35:38;9.00;;;3.20;;
61003;SDS011;46889;37.310;13.582;2022-10-16T03:38:04;8.95;;;3.15;;
61003;SDS011;46889;37.310;13.582;2022-10-16T03:40:31;10.27;;;3.40;;
61003;SDS011;46889;37.310;13.582;2022-10-16T03:42:59;7.85;;;3.08;;
61003;SDS011;46889;37.310;13.582;2022-10-16T03:45:25;7.53;;;3.58;;
61003;SDS011;46889;37.310;13.582;2022-10-16T03:47:52;10.82;;;3.28;;
61003;SDS011;46889;37.310;13.582;2022-10-16T03:50:18;6.55;;;3.50;;
61003;SDS011;46889;37.310;13.582;2022-10-16T03:52:44;8.27;;;3.45;;
61003;SDS011;46889;37.310;13.582;2022-10-16T03:55:11;6.00;;;3.22;;
61003;SDS011;46889;37.310;13.582;2022-10-16T03:57:37;6.95;;;2.88;;
61003;SDS011;46889;37.310;13.582;2022-10-16T04:00:03;8.02;;;3.72;;
61003;SDS011;46889;37.310;13.582;2022-10-16T04:02:30;7.35;;;3.33;;
61003;SDS011;46889;37.310;13.582;2022-10-16T04:04:56;8.20;;;3.70;;
61003;SDS011;46889;37.310;13.582;2022-10-16T04:07:22;10.03;;;3.67;;
61003;SDS011;46889;37.310;13.582;2022-10-16T04:09:48;9.07;;;3.65;;
61003;SDS011;46889;37.310;13.582;2022-10-16T04:12:14;8.00;;;3.80;;
61003;SDS011;46889;37.310;13.582;2022-10-16T04:14:40;5.35;;;3.40;;
61003;SDS011;46889;37.310;13.582;2022-10-16T04:17:06;7.43;;;3.58;;
61003;SDS011;46889;37.310;13.582;2022-10-16T04:19:32;5.93;;;2.87;;
61003;SDS011;46889;37.310;13.582;2022-10-16T04:21:58;12.13;;;3.83;;
61003;SDS011;46889;37.310;13.582;2022-10-16T04:24:24;12.03;;;4.00;;
61003;SDS011;46889;37.310;13.582;2022-10-16T04:26:50;7.70;;;3.60;;
61003;SDS011;46889;37.310;13.582;2022-10-16T04:29:16;7.85;;;3.50;;
61003;SDS011;46889;37.310;13.582;2022-10-16T04:31:43;5.60;;;3.55;;
61003;SDS011;46889;37.310;13.582;2022-10-16T04:34:09;6.35;;;3.92;;
61003;SDS011;46889;37.310;13.582;2022-10-16T04:36:35;8.23;;;3.60;;
61003;SDS011;46889;37.310;13.582;2022-10-16T04:39:01;9.07;;;3.80;;
61003;SDS011;46889;37.310;13.582;2022-10-16T04:41:27;10.00;;;3.70;;
61003;SDS011;46889;37.310;13.582;2022-10-16T04:43:53;9.07;;;3.92;;
61003;SDS011;46889;37.310;13.582;2022-10-16T04:46:20;7.70;;;3.90;;
61003;SDS011;46889;37.310;13.582;2022-10-16T04:48:46;8.93;;;4.20;;
61003;SDS011;46889;37.310;13.582;2022-10-16T04:51:12;7.47;;;3.70;;
61003;SDS011;46889;37.310;13.582;2022-10-16T04:53:38;6.82;;;4.03;;
61003;SDS011;46889;37.310;13.582;2022-10-16T04:56:04;10.70;;;4.20;;
61003;SDS011;46889;37.310;13.582;2022-10-16T04:58:30;6.57;;;3.83;;
61003;SDS011;46889;37.310;13.582;2022-10-16T05:00:57;7.57;;;4.15;;
61003;SDS011;46889;37.310;13.582;2022-10-16T05:03:23;7.65;;;4.07;;
61003;SDS011;46889;37.310;13.582;2022-10-16T05:05:50;9.48;;;4.30;;
61003;SDS011;46889;37.310;13.582;2022-10-16T05:08:18;8.38;;;4.60;;
61003;SDS011;46889;37.310;13.582;2022-10-16T05:10:44;10.10;;;4.47;;
61003;SDS011;46889;37.310;13.582;2022-10-16T05:13:10;7.43;;;4.18;;
61003;SDS011;46889;37.310;13.582;2022-10-16T05:15:39;11.02;;;4.65;;
61003;SDS011;46889;37.310;13.582;2022-10-16T05:18:05;13.25;;;4.65;;
61003;SDS011;46889;37.310;13.582;2022-10-16T05:20:31;10.82;;;4.57;;
61003;SDS011;46889;37.310;13.582;2022-10-16T05:22:57;9.63;;;4.40;;
61003;SDS011;46889;37.310;13.582;2022-10-16T05:25:24;10.35;;;5.28;;
61003;SDS011;46889;37.310;13.582;2022-10-16T05:27:50;9.18;;;4.70;;
61003;SDS011;46889;37.310;13.582;2022-10-16T05:30:16;7.88;;;4.60;;
61003;SDS011;46889;37.310;13.582;2022-10-16T05:35:16;9.80;;;4.63;;
61003;SDS011;46889;37.310;13.582;2022-10-16T05:37:44;9.23;;;4.65;;
61003;SDS011;46889;37.310;13.582;2022-10-16T05:40:10;12.40;;;4.40;;
61003;SDS011;46889;37.310;13.582;2022-10-16T05:42:38;10.35;;;4.40;;
61003;SDS011;46889;37.310;13.582;2022-10-16T05:45:05;7.35;;;4.57;;
61003;SDS011;46889;37.310;13.582;2022-10-16T05:47:33;10.38;;;4.65;;
61003;SDS011;46889;37.310;13.582;2022-10-16T05:49:59;8.65;;;4.25;;
61003;SDS011;46889;37.310;13.582;2022-10-16T05:52:26;10.07;;;4.00;;
61003;SDS011;46889;37.310;13.582;2022-10-16T05:54:52;9.73;;;3.92;;
61003;SDS011;46889;37.310;13.582;2022-10-16T05:57:18;8.30;;;4.03;;
61003;SDS011;46889;37.310;13.582;2022-10-16T05:59:44;5.80;;;3.58;;
61003;SDS011;46889;37.310;13.582;2022-10-16T06:02:14;8.30;;;3.55;;
61003;SDS011;46889;37.310;13.582;2022-10-16T06:04:40;7.55;;;3.90;;
61003;SDS011;46889;37.310;13.582;2022-10-16T06:07:07;7.60;;;3.20;;
61003;SDS011;46889;37.310;13.582;2022-10-16T06:09:33;11.18;;;3.15;;
61003;SDS011;46889;37.310;13.582;2022-10-16T06:14:27;8.30;;;3.20;;
61003;SDS011;46889;37.310;13.582;2022-10-16T06:16:53;9.15;;;3.38;;
61003;SDS011;46889;37.310;13.582;2022-10-16T06:21:46;6.85;;;3.03;;
61003;SDS011;46889;37.310;13.582;2022-10-16T06:24:13;8.02;;;2.90;;
61003;SDS011;46889;37.310;13.582;2022-10-16T06:26:39;8.57;;;3.35;;
61003;SDS011;46889;37.310;13.582;2022-10-16T06:29:05;7.82;;;3.30;;
61003;SDS011;46889;37.310;13.582;2022-10-16T06:31:31;7.78;;;3.15;;
61003;SDS011;46889;37.310;13.582;2022-10-16T06:33:58;7.13;;;3.35;;
61003;SDS011;46889;37.310;13.582;2022-10-16T06:36:25;8.10;;;2.83;;
61003;SDS011;46889;37.310;13.582;2022-10-16T06:38:51;6.35;;;3.10;;
61003;SDS011;46889;37.310;13.582;2022-10-16T06:43:45;10.90;;;2.97;;
61003;SDS011;46889;37.310;13.582;2022-10-16T06:48:38;7.78;;;3.30;;
61003;SDS011;46889;37.310;13.582;2022-10-16T06:51:06;7.15;;;2.85;;
61003;SDS011;46889;37.310;13.582;2022-10-16T06:53:39;8.15;;;3.00;;
61003;SDS011;46889;37.310;13.582;2022-10-16T06:56:18;7.10;;;2.80;;
61003;SDS011;46889;37.310;13.582;2022-10-16T06:58:46;8.00;;;2.90;;
61003;SDS011;46889;37.310;13.582;2022-10-16T07:01:15;6.85;;;2.45;;
61003;SDS011;46889;37.310;13.582;2022-10-16T07:03:43;6.22;;;2.72;;
61003;SDS011;46889;37.310;13.582;2022-10-16T07:06:11;5.95;;;2.53;;
61003;SDS011;46889;37.310;13.582;2022-10-16T07:08:43;6.75;;;2.38;;
61003;SDS011;46889;37.310;13.582;2022-10-16T07:11:12;5.95;;;2.47;;
61003;SDS011;46889;37.310;13.582;2022-10-16T07:13:40;5.90;;;2.53;;
61003;SDS011;46889;37.310;13.582;2022-10-16T07:18:42;7.38;;;2.42;;
61003;SDS011;46889;37.310;13.582;2022-10-16T07:21:12;7.55;;;2.58;;
61003;SDS011;46889;37.310;13.582;2022-10-16T07:23:41;5.18;;;2.60;;
61003;SDS011;46889;37.310;13.582;2022-10-16T07:26:08;6.00;;;2.60;;
61003;SDS011;46889;37.310;13.582;2022-10-16T07:28:36;9.60;;;2.55;;
61003;SDS011;46889;37.310;13.582;2022-10-16T07:31:03;5.13;;;2.55;;
61003;SDS011;46889;37.310;13.582;2022-10-16T07:33:32;6.18;;;2.70;;
61003;SDS011;46889;37.310;13.582;2022-10-16T07:35:59;7.00;;;2.90;;
61003;SDS011;46889;37.310;13.582;2022-10-16T07:38:26;7.65;;;3.03;;
61003;SDS011;46889;37.310;13.582;2022-10-16T07:40:59;7.63;;;2.90;;
61003;SDS011;46889;37.310;13.582;2022-10-16T07:43:28;6.05;;;3.17;;
61003;SDS011;46889;37.310;13.582;2022-10-16T07:48:20;11.32;;;3.08;;
61003;SDS011;46889;37.310;13.582;2022-10-16T07:50:47;7.63;;;3.35;;
61003;SDS011;46889;37.310;13.582;2022-10-16T07:53:14;8.30;;;2.60;;
61003;SDS011;46889;37.310;13.582;2022-10-16T07:55:42;7.95;;;3.50;;
61003;SDS011;46889;37.310;13.582;2022-10-16T07:58:09;9.57;;;2.88;;
61003;SDS011;46889;37.310;13.582;2022-10-16T08:00:37;9.32;;;3.22;;
61003;SDS011;46889;37.310;13.582;2022-10-16T08:05:30;6.95;;;2.42;;
61003;SDS011;46889;37.310;13.582;2022-10-16T08:07:58;7.40;;;2.95;;
61003;SDS011;46889;37.310;13.582;2022-10-16T08:10:30;6.57;;;2.40;;
61003;SDS011;46889;37.310;13.582;2022-10-16T08:12:57;6.72;;;2.30;;
61003;SDS011;46889;37.310;13.582;2022-10-16T08:15:24;8.63;;;2.70;;
61003;SDS011;46889;37.310;13.582;2022-10-16T08:18:00;7.97;;;2.00;;
61003;SDS011;46889;37.310;13.582;2022-10-16T08:20:28;7.47;;;2.35;;
61003;SDS011;46889;37.310;13.582;2022-10-16T08:22:55;4.82;;;2.38;;
61003;SDS011;46889;37.310;13.582;2022-10-16T08:25:22;8.27;;;2.33;;
61003;SDS011;46889;37.310;13.582;2022-10-16T08:27:49;6.03;;;2.20;;
61003;SDS011;46889;37.310;13.582;2022-10-16T08:30:17;7.03;;;1.98;;
61003;SDS011;46889;37.310;13.582;2022-10-16T08:32:44;7.45;;;2.55;;
61003;SDS011;46889;37.310;13.582;2022-10-16T08:35:10;6.47;;;2.22;;
61003;SDS011;46889;37.310;13.582;2022-10-16T08:37:37;6.43;;;1.75;;
61003;SDS011;46889;37.310;13.582;2022-10-16T08:40:05;5.35;;;2.10;;
61003;SDS011;46889;37.310;13.582;2022-10-16T08:42:43;8.65;;;2.40;;
61003;SDS011;46889;37.310;13.582;2022-10-16T08:47:53;7.70;;;1.73;;
61003;SDS011;46889;37.310;13.582;2022-10-16T08:50:26;5.35;;;1.88;;
61003;SDS011;46889;37.310;13.582;2022-10-16T08:52:54;6.78;;;2.20;;
61003;SDS011;46889;37.310;13.582;2022-10-16T08:55:29;11.07;;;2.55;;
61003;SDS011;46889;37.310;13.582;2022-10-16T08:58:00;6.07;;;2.47;;
61003;SDS011;46889;37.310;13.582;2022-10-16T09:00:26;7.93;;;2.30;;
61003;SDS011;46889;37.310;13.582;2022-10-16T09:03:16;9.05;;;2.78;;
61003;SDS011;46889;37.310;13.582;2022-10-16T09:12:00;6.72;;;2.47;;
61003;SDS011;46889;37.310;13.582;2022-10-16T09:17:27;8.60;;;2.70;;
61003;SDS011;46889;37.310;13.582;2022-10-16T09:20:04;5.40;;;2.30;;
61003;SDS011;46889;37.310;13.582;2022-10-16T09:22:42;5.80;;;2.25;;
61003;SDS011;46889;37.310;13.582;2022-10-16T09:25:12;6.57;;;2.17;;
61003;SDS011;46889;37.310;13.582;2022-10-16T09:27:40;6.45;;;2.70;;
61003;SDS011;46889;37.310;13.582;2022-10-16T09:30:13;9.05;;;2.80;;
61003;SDS011;46889;37.310;13.582;2022-10-16T09:32:41;5.38;;;2.78;;
61003;SDS011;46889;37.310;13.582;2022-10-16T09:35:22;8.70;;;3.00;;
61003;SDS011;46889;37.310;13.582;2022-10-16T09:37:58;6.90;;;2.58;;
61003;SDS011;46889;37.310;13.582;2022-10-16T09:40:32;7.50;;;2.72;;
61003;SDS011;46889;37.310;13.582;2022-10-16T09:43:19;6.90;;;2.60;;
61003;SDS011;46889;37.310;13.582;2022-10-16T09:48:20;8.38;;;4.00;;
61003;SDS011;46889;37.310;13.582;2022-10-16T09:51:01;9.35;;;3.05;;
61003;SDS011;46889;37.310;13.582;2022-10-16T09:53:42;7.75;;;3.15;;
61003;SDS011;46889;37.310;13.582;2022-10-16T09:56:11;6.97;;;2.88;;
61003;SDS011;46889;37.310;13.582;2022-10-16T09:58:49;6.65;;;2.55;;
61003;SDS011;46889;37.310;13.582;2022-10-16T10:01:17;8.13;;;2.95;;
61003;SDS011;46889;37.310;13.582;2022-10-16T10:03:45;6.20;;;2.80;;
61003;SDS011;46889;37.310;13.582;2022-10-16T10:06:17;6.88;;;2.65;;
61003;SDS011;46889;37.310;13.582;2022-10-16T10:11:40;9.02;;;2.83;;
61003;SDS011;46889;37.310;13.582;2022-10-16T10:14:20;9.35;;;2.95;;
61003;SDS011;46889;37.310;13.582;2022-10-16T10:19:15;8.38;;;2.65;;
61003;SDS011;46889;37.310;13.582;2022-10-16T10:21:47;6.85;;;2.80;;
61003;SDS011;46889;37.310;13.582;2022-10-16T10:24:14;6.55;;;2.60;;
61003;SDS011;46889;37.310;13.582;2022-10-16T10:26:45;7.93;;;2.58;;
61003;SDS011;46889;37.310;13.582;2022-10-16T10:29:22;6.75;;;2.53;;
61003;SDS011;46889;37.310;13.582;2022-10-16T10:34:50;4.95;;;2.13;;
61003;SDS011;46889;37.310;13.582;2022-10-16T10:46:06;9.43;;;2.78;;
61003;SDS011;46889;37.310;13.582;2022-10-16T10:48:47;8.73;;;2.45;;
61003;SDS011;46889;37.310;13.582;2022-10-16T11:01:56;7.03;;;2.30;;
61003;SDS011;46889;37.310;13.582;2022-10-16T11:07:05;8.98;;;2.70;;
61003;SDS011;46889;37.310;13.582;2022-10-16T11:10:02;6.65;;;2.60;;
61003;SDS011;46889;37.310;13.582;2022-10-16T11:12:59;6.40;;;2.22;;
61003;SDS011;46889;37.310;13.582;2022-10-16T11:15:41;8.32;;;2.60;;
61003;SDS011;46889;37.310;13.582;2022-10-16T11:18:16;7.55;;;2.10;;
61003;SDS011;46889;37.310;13.582;2022-10-16T11:21:09;7.15;;;2.28;;
61003;SDS011;46889;37.310;13.582;2022-10-16T11:23:43;9.73;;;2.60;;
61003;SDS011;46889;37.310;13.582;2022-10-16T11:26:30;6.93;;;2.55;;
61003;SDS011;46889;37.310;13.582;2022-10-16T11:29:05;7.20;;;2.63;;
61003;SDS011;46889;37.310;13.582;2022-10-16T11:31:55;7.03;;;2.13;;
61003;SDS011;46889;37.310;13.582;2022-10-16T11:34:41;5.93;;;2.65;;
61003;SDS011;46889;37.310;13.582;2022-10-16T11:37:21;7.22;;;2.70;;
61003;SDS011;46889;37.310;13.582;2022-10-16T11:39:56;5.97;;;2.78;;
61003;SDS011;46889;37.310;13.582;2022-10-16T11:42:32;9.35;;;3.13;;
61003;SDS011;46889;37.310;13.582;2022-10-16T11:50:48;6.88;;;2.83;;
61003;SDS011;46889;37.310;13.582;2022-10-16T11:53:24;9.38;;;3.22;;
61003;SDS011;46889;37.310;13.582;2022-10-16T11:56:12;7.88;;;3.00;;
61003;SDS011;46889;37.310;13.582;2022-10-16T11:58:41;5.20;;;2.88;;
61003;SDS011;46889;37.310;13.582;2022-10-16T12:04:05;6.95;;;2.45;;
61003;SDS011;46889;37.310;13.582;2022-10-16T12:07:01;7.07;;;2.60;;
61003;SDS011;46889;37.310;13.582;2022-10-16T12:09:32;6.40;;;2.80;;
61003;SDS011;46889;37.310;13.582;2022-10-16T12:12:02;5.03;;;2.58;;
61003;SDS011;46889;37.310;13.582;2022-10-16T12:17:01;9.05;;;3.00;;
61003;SDS011;46889;37.310;13.582;2022-10-16T12:20:00;12.93;;;2.95;;
61003;SDS011;46889;37.310;13.582;2022-10-16T12:22:52;9.05;;;3.10;;
61003;SDS011;46889;37.310;13.582;2022-10-16T12:25:23;7.82;;;3.00;;
61003;SDS011;46889;37.310;13.582;2022-10-16T12:27:58;6.18;;;2.90;;
61003;SDS011;46889;37.310;13.582;2022-10-16T12:30:42;8.63;;;2.90;;
61003;SDS011;46889;37.310;13.582;2022-10-16T12:35:56;6.07;;;2.80;;
61003;SDS011;46889;37.310;13.582;2022-10-16T12:41:26;9.65;;;3.67;;
61003;SDS011;46889;37.310;13.582;2022-10-16T12:44:22;8.70;;;3.33;;
61003;SDS011;46889;37.310;13.582;2022-10-16T12:46:51;7.50;;;3.20;;
61003;SDS011;46889;37.310;13.582;2022-10-16T12:49:28;7.38;;;3.13;;
61003;SDS011;46889;37.310;13.582;2022-10-16T12:54:58;6.60;;;2.78;;
61003;SDS011;46889;37.310;13.582;2022-10-16T13:00:28;8.50;;;3.58;;
61003;SDS011;46889;37.310;13.582;2022-10-16T13:11:49;6.78;;;3.40;;
61003;SDS011;46889;37.310;13.582;2022-10-16T13:14:46;6.95;;;3.80;;
61003;SDS011;46889;37.310;13.582;2022-10-16T13:17:33;9.30;;;3.90;;
61003;SDS011;46889;37.310;13.582;2022-10-16T13:20:12;7.47;;;3.60;;
61003;SDS011;46889;37.310;13.582;2022-10-16T13:28:29;6.90;;;3.35;;
61003;SDS011;46889;37.310;13.582;2022-10-16T13:30:59;6.25;;;3.30;;
61003;SDS011;46889;37.310;13.582;2022-10-16T13:33:30;6.63;;;3.47;;
61003;SDS011;46889;37.310;13.582;2022-10-16T13:36:01;7.53;;;3.22;;
61003;SDS011;46889;37.310;13.582;2022-10-16T13:38:30;7.05;;;3.00;;
61003;SDS011;46889;37.310;13.582;2022-10-16T13:40:59;10.70;;;3.50;;
61003;SDS011;46889;37.310;13.582;2022-10-16T13:43:34;8.70;;;3.90;;
61003;SDS011;46889;37.310;13.582;2022-10-16T13:46:03;13.85;;;3.88;;
61003;SDS011;46889;37.310;13.582;2022-10-16T13:51:58;6.38;;;3.03;;
61003;SDS011;46889;37.310;13.582;2022-10-16T13:54:26;7.32;;;3.90;;
61003;SDS011;46889;37.310;13.582;2022-10-16T13:57:16;6.93;;;3.25;;
61003;SDS011;46889;37.310;13.582;2022-10-16T13:59:43;6.30;;;2.88;;
61003;SDS011;46889;37.310;13.582;2022-10-16T14:05:00;8.13;;;3.20;;
61003;SDS011;46889;37.310;13.582;2022-10-16T14:07:30;9.50;;;3.42;;
61003;SDS011;46889;37.310;13.582;2022-10-16T14:10:04;7.30;;;3.17;;
61003;SDS011;46889;37.310;13.582;2022-10-16T14:12:34;8.57;;;3.15;;
61003;SDS011;46889;37.310;13.582;2022-10-16T14:15:01;6.60;;;3.20;;
61003;SDS011;46889;37.310;13.582;2022-10-16T14:17:32;7.55;;;3.63;;
61003;SDS011;46889;37.310;13.582;2022-10-16T14:20:04;7.95;;;3.33;;
61003;SDS011;46889;37.310;13.582;2022-10-16T14:22:34;5.78;;;3.83;;
61003;SDS011;46889;37.310;13.582;2022-10-16T14:28:03;7.65;;;3.15;;
61003;SDS011;46889;37.310;13.582;2022-10-16T14:30:48;5.93;;;3.10;;
61003;SDS011;46889;37.310;13.582;2022-10-16T14:36:02;7.32;;;3.42;;
61003;SDS011;46889;37.310;13.582;2022-10-16T14:38:35;7.72;;;3.33;;
61003;SDS011;46889;37.310;13.582;2022-10-16T14:41:07;7.60;;;3.53;;
61003;SDS011;46889;37.310;13.582;2022-10-16T14:43:35;7.47;;;3.00;;
61003;SDS011;46889;37.310;13.582;2022-10-16T14:46:13;7.13;;;2.80;;
61003;SDS011;46889;37.310;13.582;2022-10-16T14:48:51;7.13;;;3.40;;
61003;SDS011;46889;37.310;13.582;2022-10-16T14:51:29;8.63;;;3.47;;
61003;SDS011;46889;37.310;13.582;2022-10-16T14:53:57;12.10;;;2.75;;
61003;SDS011;46889;37.310;13.582;2022-10-16T14:56:24;9.75;;;3.47;;
61003;SDS011;46889;37.310;13.582;2022-10-16T14:58:54;11.38;;;4.07;;
61003;SDS011;46889;37.310;13.582;2022-10-16T15:01:21;7.10;;;3.30;;
61003;SDS011;46889;37.310;13.582;2022-10-16T15:03:48;7.22;;;3.30;;
61003;SDS011;46889;37.310;13.582;2022-10-16T15:06:18;10.07;;;3.53;;
61003;SDS011;46889;37.310;13.582;2022-10-16T15:08:49;9.65;;;3.83;;
61003;SDS011;46889;37.310;13.582;2022-10-16T15:11:18;10.05;;;3.88;;
61003;SDS011;46889;37.310;13.582;2022-10-16T15:14:01;7.15;;;3.33;;
61003;SDS011;46889;37.310;13.582;2022-10-16T15:16:28;7.63;;;3.40;;
61003;SDS011;46889;37.310;13.582;2022-10-16T15:23:51;6.55;;;3.20;;
61003;SDS011;46889;37.310;13.582;2022-10-16T15:26:19;6.65;;;3.30;;
61003;SDS011;46889;37.310;13.582;2022-10-16T15:28:45;6.75;;;3.83;;
61003;SDS011;46889;37.310;13.582;2022-10-16T15:31:12;7.20;;;3.60;;
61003;SDS011;46889;37.310;13.582;2022-10-16T15:33:38;11.98;;;4.60;;
61003;SDS011;46889;37.310;13.582;2022-10-16T15:36:05;8.38;;;4.00;;
61003;SDS011;46889;37.310;13.582;2022-10-16T15:38:31;7.88;;;3.47;;
61003;SDS011;46889;37.310;13.582;2022-10-16T15:40:59;6.68;;;3.65;;
61003;SDS011;46889;37.310;13.582;2022-10-16T15:43:25;8.70;;;3.92;;
61003;SDS011;46889;37.310;13.582;2022-10-16T15:46:04;10.65;;;4.45;;
61003;SDS011;46889;37.310;13.582;2022-10-16T15:48:33;8.52;;;4.60;;
61003;SDS011;46889;37.310;13.582;2022-10-16T15:50:59;10.65;;;4.80;;
61003;SDS011;46889;37.310;13.582;2022-10-16T15:53:29;7.82;;;4.57;;
61003;SDS011;46889;37.310;13.582;2022-10-16T15:55:56;7.88;;;4.63;;
61003;SDS011;46889;37.310;13.582;2022-10-16T15:58:22;12.80;;;4.60;;
61003;SDS011;46889;37.310;13.582;2022-10-16T16:00:55;13.30;;;4.97;;
61003;SDS011;46889;37.310;13.582;2022-10-16T16:03:27;11.07;;;4.97;;
61003;SDS011;46889;37.310;13.582;2022-10-16T16:05:55;9.27;;;5.43;;
61003;SDS011;46889;37.310;13.582;2022-10-16T16:08:21;11.55;;;5.13;;
61003;SDS011;46889;37.310;13.582;2022-10-16T16:10:58;9.75;;;5.57;;
61003;SDS011;46889;37.310;13.582;2022-10-16T16:13:25;10.02;;;5.63;;
61003;SDS011;46889;37.310;13.582;2022-10-16T16:15:52;10.10;;;6.97;;
61003;SDS011;46889;37.310;13.582;2022-10-16T16:18:18;11.57;;;6.28;;
61003;SDS011;46889;37.310;13.582;2022-10-16T16:20:44;11.77;;;7.15;;
61003;SDS011;46889;37.310;13.582;2022-10-16T16:23:12;11.38;;;6.78;;
61003;SDS011;46889;37.310;13.582;2022-10-16T16:25:42;14.90;;;6.90;;
61003;SDS011;46889;37.310;13.582;2022-10-16T16:28:15;13.02;;;7.43;;
61003;SDS011;46889;37.310;13.582;2022-10-16T16:30:41;13.48;;;7.88;;
61003;SDS011;46889;37.310;13.582;2022-10-16T16:35:59;13.48;;;7.70;;
61003;SDS011;46889;37.310;13.582;2022-10-16T16:38:27;14.15;;;7.90;;
61003;SDS011;46889;37.310;13.582;2022-10-16T16:40:53;12.82;;;8.15;;
61003;SDS011;46889;37.310;13.582;2022-10-16T16:43:24;16.63;;;7.95;;
61003;SDS011;46889;37.310;13.582;2022-10-16T16:45:52;12.75;;;8.20;;
61003;SDS011;46889;37.310;13.582;2022-10-16T16:48:18;13.95;;;7.82;;
61003;SDS011;46889;37.310;13.582;2022-10-16T16:50:44;13.57;;;8.32;;
61003;SDS011;46889;37.310;13.582;2022-10-16T16:53:11;16.48;;;8.52;;
61003;SDS011;46889;37.310;13.582;2022-10-16T16:55:37;16.40;;;8.32;;
61003;SDS011;46889;37.310;13.582;2022-10-16T16:58:04;10.48;;;7.50;;
61003;SDS011;46889;37.310;13.582;2022-10-16T17:00:31;11.45;;;8.10;;
61003;SDS011;46889;37.310;13.582;2022-10-16T17:02:59;14.25;;;8.05;;
61003;SDS011;46889;37.310;13.582;2022-10-16T17:05:37;12.70;;;7.82;;
61003;SDS011;46889;37.310;13.582;2022-10-16T17:08:06;13.93;;;7.57;;
61003;SDS011;46889;37.310;13.582;2022-10-16T17:10:33;11.32;;;6.70;;
61003;SDS011;46889;37.310;13.582;2022-10-16T17:13:06;13.27;;;7.75;;
61003;SDS011;46889;37.310;13.582;2022-10-16T17:15:33;12.40;;;7.15;;
61003;SDS011;46889;37.310;13.582;2022-10-16T17:20:44;16.85;;;7.90;;
61003;SDS011;46889;37.310;13.582;2022-10-16T17:28:06;8.80;;;6.35;;
61003;SDS011;46889;37.310;13.582;2022-10-16T17:30:33;13.13;;;7.63;;